sensor_id;sensor_type;location;lat;lon;timestamp;P1;durP1;ratioP1;P2;durP2;ratioP2
14088;SDS011;7120;52.890;6.040;2023-06-26T00:01:27;15.37;;;11.43;;
14088;SDS011;7120;52.890;6.040;2023-06-26T00:03:54;13.03;;;11.83;;
14088;SDS011;7120;52.890;6.040;2023-06-26T00:06:20;13.60;;;12.07;;
14088;SDS011;7120;52.890;6.040;2023-06-26T00:08:46;13.10;;;11.73;;
14088;SDS011;7120;52.890;6.040;2023-06-26T00:11:11;12.23;;;11.03;;
14088;SDS011;7120;52.890;6.040;2023-06-26T00:13:37;12.83;;;11.53;;
14088;SDS011;7120;52.890;6.040;2023-06-26T00:16:02;12.70;;;11.47;;
14088;SDS011;7120;52.890;6.040;2023-06-26T00:18:28;13.83;;;12.37;;
14088;SDS011;7120;52.890;6.040;2023-06-26T00:20:54;13.13;;;11.63;;
14088;SDS011;7120;52.890;6.040;2023-06-26T00:23:19;13.17;;;11.43;;
14088;SDS011;7120;52.890;6.040;2023-06-26T00:25:45;13.03;;;11.63;;
14088;SDS011;7120;52.890;6.040;2023-06-26T00:28:10;14.10;;;11.77;;
14088;SDS011;7120;52.890;6.040;2023-06-26T00:30:36;13.37;;;12.00;;
14088;SDS011;7120;52.890;6.040;2023-06-26T00:33:01;13.70;;;12.07;;
14088;SDS011;7120;52.890;6.040;2023-06-26T00:35:27;14.90;;;11.00;;
14088;SDS011;7120;52.890;6.040;2023-06-26T00:37:52;13.33;;;11.93;;
14088;SDS011;7120;52.890;6.040;2023-06-26T00:40:18;14.90;;;11.30;;
14088;SDS011;7120;52.890;6.040;2023-06-26T00:42:43;12.27;;;11.27;;
14088;SDS011;7120;52.890;6.040;2023-06-26T00:45:09;12.83;;;11.63;;
14088;SDS011;7120;52.890;6.040;2023-06-26T00:47:34;13.27;;;11.43;;
14088;SDS011;7120;52.890;6.040;2023-06-26T00:50:00;13.43;;;11.97;;
14088;SDS011;7120;52.890;6.040;2023-06-26T00:52:25;14.53;;;12.40;;
14088;SDS011;7120;52.890;6.040;2023-06-26T00:54:51;12.70;;;11.40;;
14088;SDS011;7120;52.890;6.040;2023-06-26T00:57:17;14.30;;;12.00;;
14088;SDS011;7120;52.890;6.040;2023-06-26T00:59:43;13.77;;;12.10;;
14088;SDS011;7120;52.890;6.040;2023-06-26T01:02:09;13.87;;;12.43;;
14088;SDS011;7120;52.890;6.040;2023-06-26T01:04:35;13.53;;;12.23;;
14088;SDS011;7120;52.890;6.040;2023-06-26T01:07:01;14.43;;;13.03;;
14088;SDS011;7120;52.890;6.040;2023-06-26T01:09:27;14.97;;;13.53;;
14088;SDS011;7120;52.890;6.040;2023-06-26T01:11:54;14.50;;;13.00;;
14088;SDS011;7120;52.890;6.040;2023-06-26T01:14:19;15.20;;;13.90;;
14088;SDS011;7120;52.890;6.040;2023-06-26T01:16:45;16.77;;;14.13;;
14088;SDS011;7120;52.890;6.040;2023-06-26T01:19:24;16.90;;;13.97;;
14088;SDS011;7120;52.890;6.040;2023-06-26T01:24:39;15.10;;;13.57;;
14088;SDS011;7120;52.890;6.040;2023-06-26T01:27:17;14.37;;;13.03;;
14088;SDS011;7120;52.890;6.040;2023-06-26T01:29:46;14.23;;;12.90;;
14088;SDS011;7120;52.890;6.040;2023-06-26T01:32:13;15.10;;;13.60;;
14088;SDS011;7120;52.890;6.040;2023-06-26T01:34:39;15.10;;;13.70;;
14088;SDS011;7120;52.890;6.040;2023-06-26T01:37:05;14.83;;;13.23;;
14088;SDS011;7120;52.890;6.040;2023-06-26T01:39:30;15.37;;;13.87;;
14088;SDS011;7120;52.890;6.040;2023-06-26T01:41:55;15.37;;;13.90;;
14088;SDS011;7120;52.890;6.040;2023-06-26T01:46:57;14.97;;;13.33;;
14088;SDS011;7120;52.890;6.040;2023-06-26T01:50:09;15.20;;;13.47;;
14088;SDS011;7120;52.890;6.040;2023-06-26T01:52:25;14.97;;;13.57;;
14088;SDS011;7120;52.890;6.040;2023-06-26T01:57:22;14.73;;;13.23;;
14088;SDS011;7120;52.890;6.040;2023-06-26T01:59:48;13.63;;;12.30;;
14088;SDS011;7120;52.890;6.040;2023-06-26T02:02:15;13.57;;;12.37;;
14088;SDS011;7120;52.890;6.040;2023-06-26T02:04:40;13.07;;;12.03;;
14088;SDS011;7120;52.890;6.040;2023-06-26T02:07:06;14.77;;;13.47;;
14088;SDS011;7120;52.890;6.040;2023-06-26T02:09:31;14.57;;;13.27;;
14088;SDS011;7120;52.890;6.040;2023-06-26T02:11:57;14.93;;;13.63;;
14088;SDS011;7120;52.890;6.040;2023-06-26T02:14:22;14.57;;;13.37;;
14088;SDS011;7120;52.890;6.040;2023-06-26T02:16:48;15.93;;;14.33;;
14088;SDS011;7120;52.890;6.040;2023-06-26T02:19:13;14.87;;;13.57;;
14088;SDS011;7120;52.890;6.040;2023-06-26T02:21:46;15.67;;;14.27;;
14088;SDS011;7120;52.890;6.040;2023-06-26T02:24:14;15.17;;;13.77;;
14088;SDS011;7120;52.890;6.040;2023-06-26T02:26:40;15.50;;;14.20;;
14088;SDS011;7120;52.890;6.040;2023-06-26T02:29:06;15.63;;;14.33;;
14088;SDS011;7120;52.890;6.040;2023-06-26T02:31:32;15.53;;;13.93;;
14088;SDS011;7120;52.890;6.040;2023-06-26T02:33:57;15.23;;;13.87;;
14088;SDS011;7120;52.890;6.040;2023-06-26T02:36:22;16.10;;;14.70;;
14088;SDS011;7120;52.890;6.040;2023-06-26T02:38:48;16.27;;;14.93;;
14088;SDS011;7120;52.890;6.040;2023-06-26T02:41:13;16.43;;;14.93;;
14088;SDS011;7120;52.890;6.040;2023-06-26T02:43:39;14.17;;;13.03;;
14088;SDS011;7120;52.890;6.040;2023-06-26T02:46:04;13.37;;;12.27;;
14088;SDS011;7120;52.890;6.040;2023-06-26T02:48:29;13.10;;;11.80;;
14088;SDS011;7120;52.890;6.040;2023-06-26T02:50:55;12.33;;;10.97;;
14088;SDS011;7120;52.890;6.040;2023-06-26T02:53:20;11.67;;;10.63;;
14088;SDS011;7120;52.890;6.040;2023-06-26T02:55:46;11.27;;;10.27;;
14088;SDS011;7120;52.890;6.040;2023-06-26T02:58:12;11.70;;;10.67;;
14088;SDS011;7120;52.890;6.040;2023-06-26T03:00:38;11.57;;;10.37;;
14088;SDS011;7120;52.890;6.040;2023-06-26T03:03:06;10.67;;;9.63;;
14088;SDS011;7120;52.890;6.040;2023-06-26T03:05:32;11.00;;;10.10;;
14088;SDS011;7120;52.890;6.040;2023-06-26T03:07:58;11.43;;;10.17;;
14088;SDS011;7120;52.890;6.040;2023-06-26T03:10:23;10.30;;;9.30;;
14088;SDS011;7120;52.890;6.040;2023-06-26T03:12:48;10.00;;;9.13;;
14088;SDS011;7120;52.890;6.040;2023-06-26T03:15:14;10.60;;;9.70;;
14088;SDS011;7120;52.890;6.040;2023-06-26T03:17:39;11.10;;;10.00;;
14088;SDS011;7120;52.890;6.040;2023-06-26T03:20:05;10.27;;;9.13;;
14088;SDS011;7120;52.890;6.040;2023-06-26T03:22:32;11.27;;;9.53;;
14088;SDS011;7120;52.890;6.040;2023-06-26T03:24:58;9.77;;;8.80;;
14088;SDS011;7120;52.890;6.040;2023-06-26T03:27:24;9.13;;;8.23;;
14088;SDS011;7120;52.890;6.040;2023-06-26T03:29:49;9.07;;;8.10;;
14088;SDS011;7120;52.890;6.040;2023-06-26T03:32:15;9.53;;;8.67;;
14088;SDS011;7120;52.890;6.040;2023-06-26T03:34:40;9.77;;;8.87;;
14088;SDS011;7120;52.890;6.040;2023-06-26T03:37:05;9.43;;;8.63;;
14088;SDS011;7120;52.890;6.040;2023-06-26T03:39:31;10.10;;;8.90;;
14088;SDS011;7120;52.890;6.040;2023-06-26T03:41:56;10.17;;;9.17;;
14088;SDS011;7120;52.890;6.040;2023-06-26T03:44:25;10.10;;;9.00;;
14088;SDS011;7120;52.890;6.040;2023-06-26T03:46:51;9.20;;;8.30;;
14088;SDS011;7120;52.890;6.040;2023-06-26T03:49:16;10.73;;;8.87;;
14088;SDS011;7120;52.890;6.040;2023-06-26T03:51:42;9.97;;;9.07;;
14088;SDS011;7120;52.890;6.040;2023-06-26T03:54:07;9.57;;;8.67;;
14088;SDS011;7120;52.890;6.040;2023-06-26T03:56:33;9.40;;;8.50;;
14088;SDS011;7120;52.890;6.040;2023-06-26T03:58:58;9.57;;;8.43;;
14088;SDS011;7120;52.890;6.040;2023-06-26T04:01:24;10.60;;;9.13;;
14088;SDS011;7120;52.890;6.040;2023-06-26T04:03:49;11.80;;;9.73;;
14088;SDS011;7120;52.890;6.040;2023-06-26T04:06:14;11.20;;;9.40;;
14088;SDS011;7120;52.890;6.040;2023-06-26T04:08:40;10.50;;;9.50;;
14088;SDS011;7120;52.890;6.040;2023-06-26T04:11:05;14.93;;;9.93;;
14088;SDS011;7120;52.890;6.040;2023-06-26T04:13:31;14.13;;;10.20;;
14088;SDS011;7120;52.890;6.040;2023-06-26T04:15:56;14.07;;;10.30;;
14088;SDS011;7120;52.890;6.040;2023-06-26T04:18:22;15.07;;;10.00;;
14088;SDS011;7120;52.890;6.040;2023-06-26T04:21:03;16.93;;;10.13;;
14088;SDS011;7120;52.890;6.040;2023-06-26T04:23:31;12.63;;;9.20;;
14088;SDS011;7120;52.890;6.040;2023-06-26T04:25:57;16.67;;;10.80;;
14088;SDS011;7120;52.890;6.040;2023-06-26T04:28:23;13.50;;;11.47;;
14088;SDS011;7120;52.890;6.040;2023-06-26T04:30:49;12.80;;;10.20;;
14088;SDS011;7120;52.890;6.040;2023-06-26T04:33:14;13.20;;;11.13;;
14088;SDS011;7120;52.890;6.040;2023-06-26T04:35:40;15.20;;;10.80;;
14088;SDS011;7120;52.890;6.040;2023-06-26T04:38:06;15.50;;;11.30;;
14088;SDS011;7120;52.890;6.040;2023-06-26T04:40:31;14.70;;;11.03;;
14088;SDS011;7120;52.890;6.040;2023-06-26T04:42:56;16.53;;;10.57;;
14088;SDS011;7120;52.890;6.040;2023-06-26T04:45:22;18.47;;;11.47;;
14088;SDS011;7120;52.890;6.040;2023-06-26T04:47:47;14.23;;;10.93;;
14088;SDS011;7120;52.890;6.040;2023-06-26T04:50:12;14.77;;;10.37;;
14088;SDS011;7120;52.890;6.040;2023-06-26T04:52:38;13.40;;;10.20;;
14088;SDS011;7120;52.890;6.040;2023-06-26T04:55:03;11.53;;;9.07;;
14088;SDS011;7120;52.890;6.040;2023-06-26T04:57:29;9.73;;;8.67;;
14088;SDS011;7120;52.890;6.040;2023-06-26T04:59:55;10.33;;;7.63;;
14088;SDS011;7120;52.890;6.040;2023-06-26T05:02:21;11.27;;;8.30;;
14088;SDS011;7120;52.890;6.040;2023-06-26T05:04:46;9.80;;;6.73;;
14088;SDS011;7120;52.890;6.040;2023-06-26T05:07:12;10.57;;;6.17;;
14088;SDS011;7120;52.890;6.040;2023-06-26T05:09:37;9.27;;;5.80;;
14088;SDS011;7120;52.890;6.040;2023-06-26T05:12:03;7.27;;;4.63;;
14088;SDS011;7120;52.890;6.040;2023-06-26T05:14:28;8.63;;;4.30;;
14088;SDS011;7120;52.890;6.040;2023-06-26T05:16:54;9.93;;;4.80;;
14088;SDS011;7120;52.890;6.040;2023-06-26T05:19:19;7.60;;;4.53;;
14088;SDS011;7120;52.890;6.040;2023-06-26T05:21:44;6.27;;;4.00;;
14088;SDS011;7120;52.890;6.040;2023-06-26T05:24:11;8.23;;;4.47;;
14088;SDS011;7120;52.890;6.040;2023-06-26T05:26:39;7.60;;;4.00;;
14088;SDS011;7120;52.890;6.040;2023-06-26T05:29:04;5.50;;;4.03;;
14088;SDS011;7120;52.890;6.040;2023-06-26T05:31:33;7.37;;;3.80;;
14088;SDS011;7120;52.890;6.040;2023-06-26T05:34:02;8.30;;;4.30;;
14088;SDS011;7120;52.890;6.040;2023-06-26T05:36:29;6.03;;;3.33;;
14088;SDS011;7120;52.890;6.040;2023-06-26T05:38:58;8.20;;;3.33;;
14088;SDS011;7120;52.890;6.040;2023-06-26T05:41:23;7.73;;;3.60;;
14088;SDS011;7120;52.890;6.040;2023-06-26T05:43:49;6.63;;;3.27;;
14088;SDS011;7120;52.890;6.040;2023-06-26T05:46:14;6.83;;;3.40;;
14088;SDS011;7120;52.890;6.040;2023-06-26T05:48:40;9.07;;;3.63;;
14088;SDS011;7120;52.890;6.040;2023-06-26T05:51:05;7.13;;;3.30;;
14088;SDS011;7120;52.890;6.040;2023-06-26T05:53:31;7.10;;;3.10;;
14088;SDS011;7120;52.890;6.040;2023-06-26T05:55:57;7.63;;;3.13;;
14088;SDS011;7120;52.890;6.040;2023-06-26T05:58:23;5.37;;;3.20;;
14088;SDS011;7120;52.890;6.040;2023-06-26T06:00:51;5.50;;;3.03;;
14088;SDS011;7120;52.890;6.040;2023-06-26T06:03:16;5.50;;;2.70;;
14088;SDS011;7120;52.890;6.040;2023-06-26T06:05:42;7.87;;;2.70;;
14088;SDS011;7120;52.890;6.040;2023-06-26T06:08:07;3.90;;;2.60;;
14088;SDS011;7120;52.890;6.040;2023-06-26T06:10:32;8.07;;;2.67;;
14088;SDS011;7120;52.890;6.040;2023-06-26T06:12:58;4.27;;;2.50;;
14088;SDS011;7120;52.890;6.040;2023-06-26T06:15:23;6.47;;;2.57;;
14088;SDS011;7120;52.890;6.040;2023-06-26T06:17:49;5.53;;;2.83;;
14088;SDS011;7120;52.890;6.040;2023-06-26T06:20:14;7.43;;;2.63;;
14088;SDS011;7120;52.890;6.040;2023-06-26T06:22:39;7.90;;;2.80;;
14088;SDS011;7120;52.890;6.040;2023-06-26T06:25:05;6.23;;;2.77;;
14088;SDS011;7120;52.890;6.040;2023-06-26T06:27:31;6.47;;;2.73;;
14088;SDS011;7120;52.890;6.040;2023-06-26T06:29:56;4.57;;;2.60;;
14088;SDS011;7120;52.890;6.040;2023-06-26T06:32:22;4.40;;;2.50;;
14088;SDS011;7120;52.890;6.040;2023-06-26T06:34:47;5.20;;;2.30;;
14088;SDS011;7120;52.890;6.040;2023-06-26T06:37:12;7.40;;;2.97;;
14088;SDS011;7120;52.890;6.040;2023-06-26T06:39:38;4.03;;;2.80;;
14088;SDS011;7120;52.890;6.040;2023-06-26T06:42:03;3.10;;;2.30;;
14088;SDS011;7120;52.890;6.040;2023-06-26T06:44:29;3.37;;;2.27;;
14088;SDS011;7120;52.890;6.040;2023-06-26T06:46:55;2.67;;;2.00;;
14088;SDS011;7120;52.890;6.040;2023-06-26T06:49:21;5.40;;;2.63;;
14088;SDS011;7120;52.890;6.040;2023-06-26T06:51:46;4.57;;;2.10;;
14088;SDS011;7120;52.890;6.040;2023-06-26T06:54:11;2.43;;;1.90;;
14088;SDS011;7120;52.890;6.040;2023-06-26T06:56:37;2.80;;;2.17;;
14088;SDS011;7120;52.890;6.040;2023-06-26T06:59:02;3.33;;;2.00;;
14088;SDS011;7120;52.890;6.040;2023-06-26T07:01:28;2.87;;;1.70;;
14088;SDS011;7120;52.890;6.040;2023-06-26T07:03:53;2.73;;;2.00;;
14088;SDS011;7120;52.890;6.040;2023-06-26T07:06:19;3.47;;;1.83;;
14088;SDS011;7120;52.890;6.040;2023-06-26T07:08:44;4.33;;;2.20;;
14088;SDS011;7120;52.890;6.040;2023-06-26T07:11:10;3.37;;;1.80;;
14088;SDS011;7120;52.890;6.040;2023-06-26T07:13:35;2.70;;;1.80;;
14088;SDS011;7120;52.890;6.040;2023-06-26T07:16:01;2.40;;;1.87;;
14088;SDS011;7120;52.890;6.040;2023-06-26T07:18:26;3.80;;;1.87;;
14088;SDS011;7120;52.890;6.040;2023-06-26T07:20:52;2.37;;;1.77;;
14088;SDS011;7120;52.890;6.040;2023-06-26T07:23:17;4.03;;;2.00;;
14088;SDS011;7120;52.890;6.040;2023-06-26T07:25:42;5.45;;;2.00;;
14088;SDS011;7120;52.890;6.040;2023-06-26T07:28:11;3.50;;;2.33;;
14088;SDS011;7120;52.890;6.040;2023-06-26T07:30:37;5.35;;;2.20;;
14088;SDS011;7120;52.890;6.040;2023-06-26T07:33:03;3.00;;;2.20;;
14088;SDS011;7120;52.890;6.040;2023-06-26T07:35:28;3.03;;;2.00;;
14088;SDS011;7120;52.890;6.040;2023-06-26T07:37:54;2.28;;;1.75;;
14088;SDS011;7120;52.890;6.040;2023-06-26T07:40:19;2.95;;;1.95;;
14088;SDS011;7120;52.890;6.040;2023-06-26T07:42:44;4.43;;;1.92;;
14088;SDS011;7120;52.890;6.040;2023-06-26T07:45:11;4.35;;;2.28;;
14088;SDS011;7120;52.890;6.040;2023-06-26T07:47:37;4.18;;;2.10;;
14088;SDS011;7120;52.890;6.040;2023-06-26T07:50:03;3.75;;;2.17;;
14088;SDS011;7120;52.890;6.040;2023-06-26T07:52:29;3.95;;;2.30;;
14088;SDS011;7120;52.890;6.040;2023-06-26T07:54:57;4.30;;;2.30;;
14088;SDS011;7120;52.890;6.040;2023-06-26T07:57:23;2.65;;;2.33;;
14088;SDS011;7120;52.890;6.040;2023-06-26T07:59:49;2.95;;;2.03;;
14088;SDS011;7120;52.890;6.040;2023-06-26T08:02:15;4.47;;;2.33;;
14088;SDS011;7120;52.890;6.040;2023-06-26T08:04:40;5.47;;;2.42;;
14088;SDS011;7120;52.890;6.040;2023-06-26T08:07:06;4.47;;;2.65;;
14088;SDS011;7120;52.890;6.040;2023-06-26T08:09:31;4.35;;;2.30;;
14088;SDS011;7120;52.890;6.040;2023-06-26T08:11:57;6.60;;;2.33;;
14088;SDS011;7120;52.890;6.040;2023-06-26T08:14:23;4.03;;;2.38;;
14088;SDS011;7120;52.890;6.040;2023-06-26T08:16:49;4.07;;;2.28;;
14088;SDS011;7120;52.890;6.040;2023-06-26T08:19:16;3.05;;;2.28;;
14088;SDS011;7120;52.890;6.040;2023-06-26T08:21:42;6.95;;;2.60;;
14088;SDS011;7120;52.890;6.040;2023-06-26T08:24:08;5.60;;;2.17;;
14088;SDS011;7120;52.890;6.040;2023-06-26T08:26:35;3.17;;;2.20;;
14088;SDS011;7120;52.890;6.040;2023-06-26T08:29:01;4.07;;;2.83;;
14088;SDS011;7120;52.890;6.040;2023-06-26T08:31:32;4.95;;;2.60;;
14088;SDS011;7120;52.890;6.040;2023-06-26T08:33:59;4.10;;;2.90;;
14088;SDS011;7120;52.890;6.040;2023-06-26T08:36:25;3.57;;;2.77;;
14088;SDS011;7120;52.890;6.040;2023-06-26T08:38:50;5.17;;;3.00;;
14088;SDS011;7120;52.890;6.040;2023-06-26T08:41:16;6.57;;;3.10;;
14088;SDS011;7120;52.890;6.040;2023-06-26T08:43:41;5.40;;;2.93;;
14088;SDS011;7120;52.890;6.040;2023-06-26T08:46:07;3.53;;;2.73;;
14088;SDS011;7120;52.890;6.040;2023-06-26T08:48:32;4.57;;;2.57;;
14088;SDS011;7120;52.890;6.040;2023-06-26T08:51:05;6.10;;;2.80;;
14088;SDS011;7120;52.890;6.040;2023-06-26T08:56:03;3.25;;;2.67;;
14088;SDS011;7120;52.890;6.040;2023-06-26T08:58:29;5.18;;;2.60;;
14088;SDS011;7120;52.890;6.040;2023-06-26T09:00:55;4.07;;;2.80;;
14088;SDS011;7120;52.890;6.040;2023-06-26T09:03:21;4.18;;;2.70;;
14088;SDS011;7120;52.890;6.040;2023-06-26T09:05:46;3.67;;;2.45;;
14088;SDS011;7120;52.890;6.040;2023-06-26T09:08:12;4.82;;;2.67;;
14088;SDS011;7120;52.890;6.040;2023-06-26T09:10:38;4.57;;;3.08;;
14088;SDS011;7120;52.890;6.040;2023-06-26T09:13:03;3.70;;;2.60;;
14088;SDS011;7120;52.890;6.040;2023-06-26T09:15:36;3.30;;;3.00;;
14088;SDS011;7120;52.890;6.040;2023-06-26T09:18:09;5.45;;;2.92;;
14088;SDS011;7120;52.890;6.040;2023-06-26T09:20:34;3.50;;;2.70;;
14088;SDS011;7120;52.890;6.040;2023-06-26T09:23:01;4.60;;;3.25;;
14088;SDS011;7120;52.890;6.040;2023-06-26T09:25:30;4.90;;;3.83;;
14088;SDS011;7120;52.890;6.040;2023-06-26T09:27:56;5.30;;;3.40;;
14088;SDS011;7120;52.890;6.040;2023-06-26T09:30:22;4.13;;;3.25;;
14088;SDS011;7120;52.890;6.040;2023-06-26T09:32:47;3.33;;;3.03;;
14088;SDS011;7120;52.890;6.040;2023-06-26T09:35:15;4.63;;;3.50;;
14088;SDS011;7120;52.890;6.040;2023-06-26T09:37:41;4.38;;;3.30;;
14088;SDS011;7120;52.890;6.040;2023-06-26T09:40:07;4.88;;;3.10;;
14088;SDS011;7120;52.890;6.040;2023-06-26T09:42:34;4.45;;;3.25;;
14088;SDS011;7120;52.890;6.040;2023-06-26T09:44:59;6.45;;;3.65;;
14088;SDS011;7120;52.890;6.040;2023-06-26T09:47:24;5.43;;;3.15;;
14088;SDS011;7120;52.890;6.040;2023-06-26T09:49:50;4.97;;;3.20;;
14088;SDS011;7120;52.890;6.040;2023-06-26T09:52:18;3.50;;;2.90;;
14088;SDS011;7120;52.890;6.040;2023-06-26T09:54:45;4.63;;;2.78;;
14088;SDS011;7120;52.890;6.040;2023-06-26T09:59:37;6.10;;;3.30;;
14088;SDS011;7120;52.890;6.040;2023-06-26T10:02:03;4.68;;;2.70;;
14088;SDS011;7120;52.890;6.040;2023-06-26T10:04:28;3.80;;;2.65;;
14088;SDS011;7120;52.890;6.040;2023-06-26T10:06:55;6.95;;;2.92;;
14088;SDS011;7120;52.890;6.040;2023-06-26T10:09:23;4.75;;;3.03;;
14088;SDS011;7120;52.890;6.040;2023-06-26T10:14:31;4.78;;;2.70;;
14088;SDS011;7120;52.890;6.040;2023-06-26T10:17:01;4.68;;;2.70;;
14088;SDS011;7120;52.890;6.040;2023-06-26T10:19:29;7.03;;;2.78;;
14088;SDS011;7120;52.890;6.040;2023-06-26T10:21:56;4.22;;;2.70;;
14088;SDS011;7120;52.890;6.040;2023-06-26T10:24:23;5.43;;;2.88;;
14088;SDS011;7120;52.890;6.040;2023-06-26T10:26:59;6.35;;;2.92;;
14088;SDS011;7120;52.890;6.040;2023-06-26T10:29:29;5.63;;;3.03;;
14088;SDS011;7120;52.890;6.040;2023-06-26T10:31:57;3.20;;;2.50;;
14088;SDS011;7120;52.890;6.040;2023-06-26T10:34:25;7.90;;;2.55;;
14088;SDS011;7120;52.890;6.040;2023-06-26T10:37:00;5.55;;;2.85;;
14088;SDS011;7120;52.890;6.040;2023-06-26T10:39:45;5.50;;;2.78;;
14088;SDS011;7120;52.890;6.040;2023-06-26T10:42:15;4.45;;;2.70;;
14088;SDS011;7120;52.890;6.040;2023-06-26T10:44:45;4.55;;;2.90;;
14088;SDS011;7120;52.890;6.040;2023-06-26T10:47:28;6.65;;;2.90;;
14088;SDS011;7120;52.890;6.040;2023-06-26T10:52:41;3.08;;;2.40;;
14088;SDS011;7120;52.890;6.040;2023-06-26T10:55:10;4.32;;;2.53;;
14088;SDS011;7120;52.890;6.040;2023-06-26T10:57:36;9.70;;;2.97;;
14088;SDS011;7120;52.890;6.040;2023-06-26T11:00:09;5.15;;;2.30;;
14088;SDS011;7120;52.890;6.040;2023-06-26T11:02:48;3.42;;;2.20;;
14088;SDS011;7120;52.890;6.040;2023-06-26T11:05:32;3.83;;;2.05;;
14088;SDS011;7120;52.890;6.040;2023-06-26T11:08:08;6.85;;;2.17;;
14088;SDS011;7120;52.890;6.040;2023-06-26T11:10:48;4.68;;;2.20;;
14088;SDS011;7120;52.890;6.040;2023-06-26T11:13:17;4.45;;;1.90;;
14088;SDS011;7120;52.890;6.040;2023-06-26T11:15:47;8.00;;;2.50;;
14088;SDS011;7120;52.890;6.040;2023-06-26T11:18:14;7.00;;;2.35;;
14088;SDS011;7120;52.890;6.040;2023-06-26T11:20:40;5.78;;;2.20;;
14088;SDS011;7120;52.890;6.040;2023-06-26T11:23:06;6.72;;;2.30;;
14088;SDS011;7120;52.890;6.040;2023-06-26T11:25:34;4.53;;;2.67;;
14088;SDS011;7120;52.890;6.040;2023-06-26T11:28:00;6.68;;;2.20;;
14088;SDS011;7120;52.890;6.040;2023-06-26T11:30:26;8.15;;;2.10;;
14088;SDS011;7120;52.890;6.040;2023-06-26T11:32:52;6.03;;;2.50;;
14088;SDS011;7120;52.890;6.040;2023-06-26T11:35:23;5.03;;;2.22;;
14088;SDS011;7120;52.890;6.040;2023-06-26T11:37:55;5.65;;;2.08;;
14088;SDS011;7120;52.890;6.040;2023-06-26T11:40:22;5.50;;;2.33;;
14088;SDS011;7120;52.890;6.040;2023-06-26T11:42:52;7.53;;;2.17;;
14088;SDS011;7120;52.890;6.040;2023-06-26T11:45:19;5.88;;;2.13;;
14088;SDS011;7120;52.890;6.040;2023-06-26T11:47:44;5.15;;;2.30;;
14088;SDS011;7120;52.890;6.040;2023-06-26T11:50:19;4.45;;;2.00;;
14088;SDS011;7120;52.890;6.040;2023-06-26T11:52:44;4.40;;;1.88;;
14088;SDS011;7120;52.890;6.040;2023-06-26T11:55:10;6.95;;;2.28;;
14088;SDS011;7120;52.890;6.040;2023-06-26T11:57:36;5.75;;;2.22;;
14088;SDS011;7120;52.890;6.040;2023-06-26T12:00:14;6.03;;;2.20;;
14088;SDS011;7120;52.890;6.040;2023-06-26T12:02:41;7.32;;;2.08;;
14088;SDS011;7120;52.890;6.040;2023-06-26T12:05:06;4.35;;;1.58;;
14088;SDS011;7120;52.890;6.040;2023-06-26T12:07:33;4.50;;;1.90;;
14088;SDS011;7120;52.890;6.040;2023-06-26T12:10:00;8.23;;;2.33;;
14088;SDS011;7120;52.890;6.040;2023-06-26T12:12:26;5.47;;;2.05;;
14088;SDS011;7120;52.890;6.040;2023-06-26T12:14:52;5.63;;;1.70;;
14088;SDS011;7120;52.890;6.040;2023-06-26T12:17:17;1.92;;;1.38;;
14088;SDS011;7120;52.890;6.040;2023-06-26T12:19:48;4.20;;;1.67;;
14088;SDS011;7120;52.890;6.040;2023-06-26T12:22:14;2.90;;;1.42;;
14088;SDS011;7120;52.890;6.040;2023-06-26T12:24:40;5.25;;;1.83;;
14088;SDS011;7120;52.890;6.040;2023-06-26T12:27:08;4.18;;;2.05;;
14088;SDS011;7120;52.890;6.040;2023-06-26T12:29:35;2.60;;;1.80;;
14088;SDS011;7120;52.890;6.040;2023-06-26T12:32:01;2.97;;;1.50;;
14088;SDS011;7120;52.890;6.040;2023-06-26T12:34:36;4.97;;;1.98;;
14088;SDS011;7120;52.890;6.040;2023-06-26T12:37:04;4.07;;;2.20;;
14088;SDS011;7120;52.890;6.040;2023-06-26T12:39:45;7.45;;;2.50;;
14088;SDS011;7120;52.890;6.040;2023-06-26T12:42:24;5.70;;;2.35;;
14088;SDS011;7120;52.890;6.040;2023-06-26T12:44:51;5.50;;;1.92;;
14088;SDS011;7120;52.890;6.040;2023-06-26T12:47:17;3.92;;;1.73;;
14088;SDS011;7120;52.890;6.040;2023-06-26T12:49:51;4.65;;;2.00;;
14088;SDS011;7120;52.890;6.040;2023-06-26T12:52:18;6.43;;;2.58;;
14088;SDS011;7120;52.890;6.040;2023-06-26T12:54:44;5.93;;;1.83;;
14088;SDS011;7120;52.890;6.040;2023-06-26T12:57:12;5.05;;;2.00;;
14088;SDS011;7120;52.890;6.040;2023-06-26T12:59:39;5.63;;;2.20;;
14088;SDS011;7120;52.890;6.040;2023-06-26T13:02:05;6.55;;;2.65;;
14088;SDS011;7120;52.890;6.040;2023-06-26T13:04:31;6.13;;;2.08;;
14088;SDS011;7120;52.890;6.040;2023-06-26T13:06:57;4.55;;;2.20;;
14088;SDS011;7120;52.890;6.040;2023-06-26T13:09:23;5.60;;;2.53;;
14088;SDS011;7120;52.890;6.040;2023-06-26T13:11:50;4.25;;;1.98;;
14088;SDS011;7120;52.890;6.040;2023-06-26T13:14:18;4.38;;;2.65;;
14088;SDS011;7120;52.890;6.040;2023-06-26T13:16:43;6.03;;;2.20;;
14088;SDS011;7120;52.890;6.040;2023-06-26T13:19:09;7.10;;;2.50;;
14088;SDS011;7120;52.890;6.040;2023-06-26T13:21:34;5.47;;;2.28;;
14088;SDS011;7120;52.890;6.040;2023-06-26T13:24:00;5.80;;;2.35;;
14088;SDS011;7120;52.890;6.040;2023-06-26T13:26:27;4.07;;;2.20;;
14088;SDS011;7120;52.890;6.040;2023-06-26T13:28:54;6.67;;;2.23;;
14088;SDS011;7120;52.890;6.040;2023-06-26T13:31:20;6.10;;;2.60;;
14088;SDS011;7120;52.890;6.040;2023-06-26T13:33:46;6.60;;;2.03;;
14088;SDS011;7120;52.890;6.040;2023-06-26T13:36:15;6.57;;;2.22;;
14088;SDS011;7120;52.890;6.040;2023-06-26T13:38:41;6.32;;;1.95;;
14088;SDS011;7120;52.890;6.040;2023-06-26T13:41:07;2.22;;;1.50;;
14088;SDS011;7120;52.890;6.040;2023-06-26T13:43:32;4.63;;;1.80;;
14088;SDS011;7120;52.890;6.040;2023-06-26T13:45:58;6.20;;;2.30;;
14088;SDS011;7120;52.890;6.040;2023-06-26T13:48:23;4.03;;;2.03;;
14088;SDS011;7120;52.890;6.040;2023-06-26T13:50:49;3.88;;;2.03;;
14088;SDS011;7120;52.890;6.040;2023-06-26T13:53:15;2.78;;;1.90;;
14088;SDS011;7120;52.890;6.040;2023-06-26T13:55:40;3.88;;;1.90;;
14088;SDS011;7120;52.890;6.040;2023-06-26T13:58:06;3.20;;;1.67;;
14088;SDS011;7120;52.890;6.040;2023-06-26T14:00:33;2.88;;;1.80;;
14088;SDS011;7120;52.890;6.040;2023-06-26T14:03:00;4.32;;;1.92;;
14088;SDS011;7120;52.890;6.040;2023-06-26T14:05:26;6.82;;;2.35;;
14088;SDS011;7120;52.890;6.040;2023-06-26T14:07:52;6.68;;;1.80;;
14088;SDS011;7120;52.890;6.040;2023-06-26T14:10:18;5.22;;;2.15;;
14088;SDS011;7120;52.890;6.040;2023-06-26T14:12:44;5.50;;;2.17;;
14088;SDS011;7120;52.890;6.040;2023-06-26T14:15:09;5.10;;;2.17;;
14088;SDS011;7120;52.890;6.040;2023-06-26T14:17:35;6.13;;;2.10;;
14088;SDS011;7120;52.890;6.040;2023-06-26T14:20:00;3.90;;;1.63;;
14088;SDS011;7120;52.890;6.040;2023-06-26T14:22:26;3.67;;;1.88;;
14088;SDS011;7120;52.890;6.040;2023-06-26T14:24:51;4.03;;;1.67;;
14088;SDS011;7120;52.890;6.040;2023-06-26T14:27:17;3.45;;;1.75;;
14088;SDS011;7120;52.890;6.040;2023-06-26T14:29:42;6.35;;;2.00;;
14088;SDS011;7120;52.890;6.040;2023-06-26T14:32:07;3.70;;;1.75;;
14088;SDS011;7120;52.890;6.040;2023-06-26T14:34:33;4.68;;;1.88;;
14088;SDS011;7120;52.890;6.040;2023-06-26T14:36:58;3.05;;;1.80;;
14088;SDS011;7120;52.890;6.040;2023-06-26T14:39:24;2.10;;;1.50;;
14088;SDS011;7120;52.890;6.040;2023-06-26T14:41:49;5.13;;;1.92;;
14088;SDS011;7120;52.890;6.040;2023-06-26T14:44:15;4.38;;;1.98;;
14088;SDS011;7120;52.890;6.040;2023-06-26T14:46:40;4.50;;;2.00;;
14088;SDS011;7120;52.890;6.040;2023-06-26T14:49:06;4.75;;;2.10;;
14088;SDS011;7120;52.890;6.040;2023-06-26T14:51:32;7.28;;;2.58;;
14088;SDS011;7120;52.890;6.040;2023-06-26T14:53:58;5.38;;;2.30;;
14088;SDS011;7120;52.890;6.040;2023-06-26T14:56:23;5.38;;;1.90;;
14088;SDS011;7120;52.890;6.040;2023-06-26T14:58:49;7.10;;;2.40;;
14088;SDS011;7120;52.890;6.040;2023-06-26T15:01:16;7.13;;;2.33;;
14088;SDS011;7120;52.890;6.040;2023-06-26T15:03:41;6.33;;;2.40;;
14088;SDS011;7120;52.890;6.040;2023-06-26T15:06:07;4.27;;;1.90;;
14088;SDS011;7120;52.890;6.040;2023-06-26T15:08:33;4.27;;;1.77;;